Time;durP1;ratioP1;P1;durP2;ratioP2;P2;SDS_P1;SDS_P2;PMS_P1;PMS_P2;Temp;Humidity;BMP_temperature;BMP_pressure;BME280_temperature;BME280_humidity;BME280_pressure;Samples;Min_cycle;Max_cycle;Signal;HPM_P1;HPM_P2
2022/12/30 08:25:02;;;;;;;;;2.75;2.75;;;;;9.49;100.00;100445.53;5767293;23;49326;-68
2022/12/30 08:27:27;;;;;;;;;1.75;1.75;;;;;9.96;100.00;100518.97;4915463;28;50131;-69
2022/12/30 08:29:53;;;;;;;;;1.00;1.00;;;;;9.65;100.00;100455.47;4915282;28;49845;-69
2022/12/30 08:32:18;;;;;;;;;2.00;2.00;;;;;9.65;100.00;100450.22;4922371;28;50610;-68
2022/12/30 08:34:52;;;;;;;;;2.75;2.00;;;;;9.95;100.00;100493.63;4926894;28;50549;-69
2022/12/30 08:37:18;;;;;;;;;3.75;1.75;;;;;9.89;100.00;100483.88;4925126;28;50698;-68
2022/12/30 08:39:43;;;;;;;;;3.00;2.00;;;;;9.61;100.00;100416.06;4926480;28;50263;-70
2022/12/30 08:42:08;;;;;;;;;3.25;1.75;;;;;9.97;100.00;100469.19;4933998;28;49802;-69
2022/12/30 08:44:33;;;;;;;;;1.00;1.00;;;;;9.98;100.00;100463.06;4934122;28;49716;-68
2022/12/30 08:46:59;;;;;;;;;2.00;2.00;;;;;9.92;100.00;100462.94;4928439;28;50527;-67
2022/12/30 08:49:25;;;;;;;;;2.00;2.00;;;;;9.78;100.00;100433.00;4932685;28;49743;-68
2022/12/30 08:51:50;;;;;;;;;2.75;2.75;;;;;9.85;100.00;100447.09;4933885;28;49846;-68
2022/12/30 08:54:16;;;;;;;;;2.00;2.00;;;;;9.89;100.00;100451.53;4933890;28;49614;-68
2022/12/30 08:56:42;;;;;;;;;3.00;2.00;;;;;9.80;100.00;100430.38;4933330;28;49819;-68
2022/12/30 08:59:11;;;;;;;;;1.00;1.00;;;;;9.86;100.00;100435.75;4933420;28;49699;-69
2022/12/30 09:01:38;;;;;;;;;4.75;2.00;;;;;9.63;100.00;100404.75;4933380;28;49726;-68
2022/12/30 09:04:06;;;;;;;;;6.50;2.25;;;;;9.84;100.00;100432.19;4947387;28;49988;-68
2022/12/30 09:06:33;;;;;;;;;1.25;1.25;;;;;9.75;100.00;100417.22;4932996;28;49767;-68
2022/12/30 09:08:59;;;;;;;;;1.00;1.00;;;;;9.30;100.00;100336.88;4932273;28;49767;-69
2022/12/30 09:11:31;;;;;;;;;1.00;1.00;;;;;9.82;100.00;100412.94;4933300;28;49805;-68
2022/12/30 09:13:58;;;;;;;;;0.25;0.25;;;;;9.75;100.00;100391.00;4928336;28;49849;-67
2022/12/30 09:16:24;;;;;;;;;2.00;2.00;;;;;9.56;100.00;100379.28;4929808;28;50657;-67
2022/12/30 09:18:50;;;;;;;;;3.00;3.00;;;;;9.44;100.00;100344.97;4933160;28;49909;-68
2022/12/30 09:21:17;;;;;;;;;2.50;2.50;;;;;9.79;100.00;100390.19;4932882;28;49858;-67
2022/12/30 09:23:42;;;;;;;;;1.00;1.00;;;;;9.66;100.00;100367.25;4932828;28;49816;-67
2022/12/30 09:26:10;;;;;;;;;2.50;1.25;;;;;9.53;100.00;100345.16;4932474;28;57618;-68
2022/12/30 09:28:36;;;;;;;;;1.00;1.00;;;;;9.71;100.00;100355.97;4932810;28;49884;-67
2022/12/30 09:31:01;;;;;;;;;2.25;1.25;;;;;9.73;100.00;100354.25;4932982;28;50223;-68
2022/12/30 09:33:26;;;;;;;;;2.25;1.75;;;;;9.83;100.00;100376.25;4940935;28;49895;-68
2022/12/30 09:35:52;;;;;;;;;1.25;0.25;;;;;9.80;100.00;100360.50;4950579;28;50083;-68
2022/12/30 09:38:17;;;;;;;;;0.00;0.00;;;;;9.64;100.00;100338.34;4949216;28;49353;-68
2022/12/30 09:41:05;;;;;;;;;1.00;1.00;;;;;9.87;100.00;100375.47;4950673;28;49507;-67
2022/12/30 09:43:45;;;;;;;;;0.25;0.25;;;;;9.85;100.00;100353.59;4950664;28;49572;-67
2022/12/30 09:46:16;;;;;;;;;1.00;1.00;;;;;9.52;100.00;100317.19;4949601;28;49893;-67
2022/12/30 09:48:46;;;;;;;;;2.00;1.25;;;;;9.84;100.00;100356.16;4949929;28;49679;-69
2022/12/30 09:51:18;;;;;;;;;1.00;1.00;;;;;9.85;100.00;100365.84;4950340;28;49533;-66
2022/12/30 09:53:59;;;;;;;;;3.25;1.75;;;;;9.86;100.00;100349.25;4937393;28;49289;-68
2022/12/30 09:56:32;;;;;;;;;1.50;1.25;;;;;9.86;100.00;100344.88;4926517;28;51050;-69
2022/12/30 09:59:04;;;;;;;;;3.50;2.25;;;;;9.54;100.00;100255.19;4937955;28;49711;-69
2022/12/30 10:01:59;;;;;;;;;1.00;1.00;;;;;9.93;100.00;100302.16;4935525;28;49945;-70
2022/12/30 10:04:34;;;;;;;;;2.75;2.00;;;;;9.95;100.00;100296.97;4936528;28;49746;-73
2022/12/30 10:07:25;;;;;;;;;2.50;2.00;;;;;9.96;100.00;100294.34;4927442;28;50557;-69
2022/12/30 10:10:05;;;;;;;;;1.00;1.00;;;;;9.80;100.00;100260.00;4933597;28;49713;-69
2022/12/30 10:12:36;;;;;;;;;0.00;0.00;;;;;9.95;100.00;100273.34;4930668;28;49826;-76
2022/12/30 10:15:32;;;;;;;;;1.75;0.25;;;;;9.97;100.00;100280.38;4928989;28;50354;-67
2022/12/30 10:18:15;;;;;;;;;2.00;2.00;;;;;9.99;100.00;100262.03;4929142;28;49915;-69
2022/12/30 10:21:02;;;;;;;;;2.00;1.00;;;;;9.98;100.00;100252.41;4932489;28;49666;-72
2022/12/30 10:23:33;;;;;;;;;1.00;1.00;;;;;9.99;100.00;100249.81;4929379;28;50053;-68
2022/12/30 10:26:11;;;;;;;;;1.00;1.00;;;;;10.01;100.00;100234.09;4928465;28;50215;-70
2022/12/30 10:28:46;;;;;;;;;0.00;0.00;;;;;10.04;100.00;100237.66;4935821;28;49797;-68
2022/12/30 10:31:21;;;;;;;;;2.50;1.75;;;;;10.04;100.00;100228.91;4930643;28;49826;-67
2022/12/30 10:33:49;;;;;;;;;0.25;0.25;;;;;9.95;100.00;100207.81;4931293;28;49903;-67
2022/12/30 10:36:26;;;;;;;;;0.50;0.50;;;;;10.12;100.00;100227.25;4930660;28;49960;-68
2022/12/30 10:39:14;;;;;;;;;0.00;0.00;;;;;10.16;100.00;100226.47;4931429;28;50475;-70
2022/12/30 10:42:05;;;;;;;;;1.00;1.00;;;;;10.20;100.00;100228.25;4930716;28;49619;-68
2022/12/30 10:45:06;;;;;;;;;0.00;0.00;;;;;10.26;100.00;100214.38;4931724;28;49774;-70
2022/12/30 10:48:09;;;;;;;;;0.50;0.50;;;;;10.38;100.00;100208.41;4928490;28;49941;-72
2022/12/30 10:50:40;;;;;;;;;0.00;0.00;;;;;10.37;100.00;100188.28;4930929;28;51500;-67
2022/12/30 10:53:22;;;;;;;;;0.00;0.00;;;;;10.45;100.00;100179.66;4930013;28;49905;-67
2022/12/30 10:55:55;;;;;;;;;0.00;0.00;;;;;10.56;100.00;100157.03;4934269;28;50068;-70
2022/12/30 10:58:34;;;;;;;;;0.00;0.00;;;;;10.57;100.00;100186.78;4931186;28;50134;-71
2022/12/30 11:01:01;;;;;;;;;0.25;0.00;;;;;10.70;100.00;100193.03;4925002;28;50198;-72
2022/12/30 11:03:29;;;;;;;;;0.00;0.00;;;;;10.79;100.00;100156.38;4930849;28;49822;-67
2022/12/30 11:05:55;;;;;;;;;0.00;0.00;;;;;10.68;100.00;100100.28;4926435;28;49651;-68
2022/12/30 11:08:26;;;;;;;;;0.00;0.00;;;;;10.74;100.00;100105.59;4932731;28;49890;-67
2022/12/30 11:11:03;;;;;;;;;0.50;0.50;;;;;10.98;100.00;100126.81;4933689;28;49806;-68
2022/12/30 11:16:15;;;;;;;;;0.00;0.00;;;;;10.85;100.00;100131.06;4930985;28;49904;-69
2022/12/30 11:18:45;;;;;;;;;0.00;0.00;;;;;11.10;100.00;100149.69;4930641;28;51268;-69
2022/12/30 11:21:10;;;;;;;;;0.00;0.00;;;;;11.22;100.00;100130.53;4928540;28;51961;-68
2022/12/30 11:23:38;;;;;;;;;1.00;1.00;;;;;11.23;100.00;100120.03;4928669;28;50903;-68
2022/12/30 11:26:17;;;;;;;;;0.00;0.00;;;;;11.35;100.00;100138.50;4928006;28;49927;-69
2022/12/30 11:29:04;;;;;;;;;1.50;0.00;;;;;11.46;100.00;100136.84;4930063;28;49806;-70
2022/12/30 11:31:42;;;;;;;;;0.00;0.00;;;;;10.99;100.00;100052.41;4933984;28;50046;-71
2022/12/30 11:34:39;;;;;;;;;0.00;0.00;;;;;11.60;100.00;100097.50;4925566;28;49954;-79
2022/12/30 11:37:31;;;;;;;;;0.00;0.00;;;;;11.44;100.00;100072.88;4921790;28;49889;-77
2022/12/30 11:40:32;;;;;;;;;0.00;0.00;;;;;11.66;100.00;100083.50;4928973;28;49933;-73
2022/12/30 11:43:16;;;;;;;;;0.00;0.00;;;;;11.89;100.00;100097.69;4931473;28;51100;-74
2022/12/30 11:46:03;;;;;;;;;0.00;0.00;;;;;11.92;100.00;100102.09;4927999;28;49840;-75
2022/12/30 11:48:57;;;;;;;;;0.50;0.50;;;;;11.51;100.00;100062.41;4929832;28;49936;-74
2022/12/30 11:51:25;;;;;;;;;0.00;0.00;;;;;11.74;100.00;100094.94;4924892;28;50011;-73
2022/12/30 11:54:13;;;;;;;;;1.00;1.00;;;;;11.71;100.00;100069.53;4928971;28;51633;-74
2022/12/30 11:56:52;;;;;;;;;0.25;0.25;;;;;11.56;100.00;100014.22;4937994;28;50797;-73
2022/12/30 11:59:23;;;;;;;;;0.00;0.00;;;;;10.85;100.00;99928.03;4927263;28;50842;-73
2022/12/30 12:01:53;;;;;;;;;0.00;0.00;;;;;11.99;100.00;100127.56;4928479;28;49886;-73
2022/12/30 12:04:33;;;;;;;;;0.00;0.00;;;;;11.32;100.00;99993.97;4936897;28;50088;-73
2022/12/30 12:06:59;;;;;;;;;0.00;0.00;;;;;11.96;100.00;100045.97;4934062;28;50067;-73
2022/12/30 12:09:32;;;;;;;;;0.00;0.00;;;;;11.92;100.00;100016.19;4933275;28;49984;-74
2022/12/30 12:12:02;;;;;;;;;1.00;1.00;;;;;11.54;100.00;100002.84;4931957;28;49798;-74
2022/12/30 12:14:56;;;;;;;;;1.00;1.00;;;;;12.26;100.00;100101.38;4931701;28;49966;-73
2022/12/30 12:17:46;;;;;;;;;0.00;0.00;;;;;12.29;100.00;100069.78;4941135;28;49674;-70
2022/12/30 12:20:19;;;;;;;;;1.00;0.00;;;;;12.10;100.00;100030.25;4939744;28;49720;-75
2022/12/30 12:22:58;;;;;;;;;0.00;0.00;;;;;12.47;100.00;100078.63;4945101;28;50060;-74
2022/12/30 12:25:29;;;;;;;;;1.00;0.00;;;;;12.35;100.00;100047.84;4938981;28;50190;-74
2022/12/30 12:27:55;;;;;;;;;0.00;0.00;;;;;11.77;100.00;99924.03;4940295;28;49801;-77
2022/12/30 12:30:21;;;;;;;;;0.00;0.00;;;;;11.79;100.00;99937.22;4944624;28;49771;-75
2022/12/30 12:32:58;;;;;;;;;0.00;0.00;;;;;12.46;100.00;100001.41;4950845;28;49723;-75
2022/12/30 12:35:50;;;;;;;;;0.25;0.00;;;;;12.81;100.00;100071.63;4949916;28;50056;-74
2022/12/30 12:38:49;;;;;;;;;0.00;0.00;;;;;12.90;100.00;100069.00;4964966;28;49734;-75
2022/12/30 12:41:17;;;;;;;;;0.00;0.00;;;;;12.93;100.00;100079.53;4951026;28;49383;-79
2022/12/30 12:44:20;;;;;;;;;0.00;0.00;;;;;12.80;100.00;100038.25;4941506;28;50050;-75
2022/12/30 12:46:58;;;;;;;;;0.00;0.00;;;;;13.07;100.00;100071.63;4949182;28;49444;-74
2022/12/30 12:49:38;;;;;;;;;0.00;0.00;;;;;13.10;100.00;100061.97;4936500;28;49839;-75
2022/12/30 12:52:20;;;;;;;;;0.00;0.00;;;;;13.16;100.00;100075.16;4939374;28;49355;-71
2022/12/30 12:55:19;;;;;;;;;0.00;0.00;;;;;13.08;100.00;100037.38;4941264;28;49881;-72
2022/12/30 12:58:07;;;;;;;;;0.00;0.00;;;;;13.25;100.00;100066.38;4939337;28;49777;-72
2022/12/30 13:00:38;;;;;;;;;1.00;1.00;;;;;13.17;100.00;100062.84;4942827;28;49887;-72
2022/12/30 13:03:28;;;;;;;;;1.00;0.00;;;;;13.37;100.00;100073.41;4944312;28;49634;-73
2022/12/30 13:06:06;;;;;;;;;0.00;0.00;;;;;13.37;100.00;100076.03;4950736;28;49408;-75
2022/12/30 13:08:45;;;;;;;;;0.00;0.00;;;;;13.40;100.00;100054.94;4947772;28;49616;-72
2022/12/30 13:11:26;;;;;;;;;0.00;0.00;;;;;13.52;100.00;100061.97;4942277;28;49567;-74
2022/12/30 13:14:09;;;;;;;;;0.00;0.00;;;;;13.51;100.00;100071.63;4933369;28;49677;-76
2022/12/30 13:16:40;;;;;;;;;0.00;0.00;;;;;13.62;100.00;100076.88;4932014;28;50322;-78
2022/12/30 13:19:13;;;;;;;;;0.00;0.00;;;;;13.68;100.00;100074.19;4940444;28;50533;-77
2022/12/30 13:21:38;;;;;;;;;0.00;0.00;;;;;13.73;100.00;100056.63;4940061;28;49835;-75
2022/12/30 13:24:06;;;;;;;;;0.00;0.00;;;;;13.61;100.00;100027.66;4932432;28;49801;-74
2022/12/30 13:26:35;;;;;;;;;0.00;0.00;;;;;13.82;100.00;100042.53;4931943;28;49724;-73
2022/12/30 13:29:02;;;;;;;;;0.00;0.00;;;;;13.67;100.00;100017.06;4932838;28;49978;-75
2022/12/30 13:31:46;;;;;;;;;0.00;0.00;;;;;14.12;100.00;100070.53;4933257;28;49928;-75
2022/12/30 13:34:35;;;;;;;;;0.00;0.00;;;;;14.16;100.00;100059.94;4957799;28;49651;-76
2022/12/30 13:37:16;;;;;;;;;0.00;0.00;;;;;14.22;100.00;100065.22;4945243;28;49628;-82
2022/12/30 13:39:44;;;;;;;;;0.00;0.00;;;;;14.33;100.00;100066.03;4936000;28;49949;-76
2022/12/30 13:42:27;;;;;;;;;0.00;0.00;;;;;14.40;100.00;100068.63;4939593;28;49810;-75
2022/12/30 13:44:54;;;;;;;;;0.00;0.00;;;;;14.43;100.00;100060.69;4926479;28;50120;-75
2022/12/30 13:47:41;;;;;;;;;0.00;0.00;;;;;14.45;100.00;100069.50;4946712;28;49965;-73
2022/12/30 13:50:22;;;;;;;;;0.00;0.00;;;;;14.53;100.00;100070.34;4948616;28;51930;-69
2022/12/30 13:52:54;;;;;;;;;0.00;0.00;;;;;14.40;100.00;100063.34;4949852;28;49505;-71
2022/12/30 13:55:23;;;;;;;;;0.00;0.00;;;;;14.48;100.00;100085.34;4948782;28;49753;-73
2022/12/30 13:58:00;;;;;;;;;0.00;0.00;;;;;14.47;100.00;100081.81;4942354;28;49159;-72
2022/12/30 14:00:30;;;;;;;;;0.00;0.00;;;;;14.45;100.00;100091.50;4943665;28;51000;-77
2022/12/30 14:03:00;;;;;;;;;0.00;0.00;;;;;14.43;100.00;100085.31;4950423;28;49875;-78
2022/12/30 14:05:50;;;;;;;;;0.00;0.00;;;;;14.42;100.00;100082.69;4950459;28;49478;-74
2022/12/30 14:08:24;;;;;;;;;0.00;0.00;;;;;14.31;100.00;100070.44;4949906;28;49426;-79
2022/12/30 14:11:01;;;;;;;;;0.00;0.00;;;;;14.56;100.00;100102.00;4939033;28;49896;-70
2022/12/30 14:13:26;;;;;;;;;0.00;0.00;;;;;14.58;100.00;100108.19;4941155;28;50002;-73
2022/12/30 14:15:57;;;;;;;;;0.00;0.00;;;;;14.41;100.00;100079.19;4930304;28;49842;-70
2022/12/30 14:18:28;;;;;;;;;0.00;0.00;;;;;14.32;100.00;100071.31;4935064;28;49895;-77
2022/12/30 14:20:57;;;;;;;;;0.00;0.00;;;;;14.55;100.00;100116.09;4930052;28;51449;-76
2022/12/30 14:23:50;;;;;;;;;0.00;0.00;;;;;14.15;100.00;100054.69;4934932;28;49881;-76
2022/12/30 14:26:19;;;;;;;;;0.00;0.00;;;;;14.51;100.00;100130.22;4928065;28;49660;-76
2022/12/30 14:28:52;;;;;;;;;0.00;0.00;;;;;14.04;100.00;100036.25;4936265;28;49826;-74
2022/12/30 14:31:43;;;;;;;;;0.00;0.00;;;;;14.56;100.00;100120.50;4938300;28;49853;-70
2022/12/30 14:34:36;;;;;;;;;0.00;0.00;;;;;14.62;100.00;100122.22;4942708;28;49163;-73
2022/12/30 14:37:19;;;;;;;;;0.00;0.00;;;;;14.66;100.00;100131.88;4930599;28;49834;-74
2022/12/30 14:39:44;;;;;;;;;0.00;0.00;;;;;13.61;100.00;99978.41;4948585;28;49615;-76
2022/12/30 14:42:31;;;;;;;;;0.00;0.00;;;;;13.39;100.00;99927.50;4946276;28;50171;-79
2022/12/30 14:45:03;;;;;;;;;0.00;0.00;;;;;14.08;100.00;100032.72;4945511;28;49709;-76
2022/12/30 14:47:41;;;;;;;;;0.00;0.00;;;;;13.46;100.00;99918.69;4949027;28;49457;-74
2022/12/30 14:50:11;;;;;;;;;0.00;0.00;;;;;13.85;100.00;99972.16;4941041;28;49774;-74
2022/12/30 14:52:53;;;;;;;;;0.00;0.00;;;;;14.64;100.00;100116.03;4939871;28;50791;-76
2022/12/30 14:55:25;;;;;;;;;0.00;0.00;;;;;13.53;100.00;99958.25;4941116;28;49739;-75
2022/12/30 14:57:58;;;;;;;;;0.00;0.00;;;;;14.76;100.00;100168.81;4940667;28;49599;-72
2022/12/30 15:00:28;;;;;;;;;0.00;0.00;;;;;14.00;100.00;100067.06;4943805;28;49510;-72
2022/12/30 15:02:56;;;;;;;;;0.00;0.00;;;;;13.65;100.00;99977.50;4946371;28;51755;-76
2022/12/30 15:05:33;;;;;;;;;0.00;0.00;;;;;14.70;100.00;100168.84;4932276;28;50123;-78
2022/12/30 15:08:08;;;;;;;;;0.00;0.00;;;;;14.67;100.00;100175.91;4940318;28;49707;-74
2022/12/30 15:10:34;;;;;;;;;1.50;0.75;;;;;14.67;100.00;100183.84;4948158;28;49472;-78
2022/12/30 15:13:19;;;;;;;;;0.00;0.00;;;;;14.64;100.00;100182.09;4948498;28;50573;-74
2022/12/30 15:15:54;;;;;;;;;0.00;0.00;;;;;14.63;100.00;100195.31;4946315;28;49228;-75
2022/12/30 15:18:28;;;;;;;;;0.00;0.00;;;;;14.60;100.00;100201.50;4949232;28;49311;-74
2022/12/30 15:20:54;;;;;;;;;0.00;0.00;;;;;13.24;100.00;99995.22;4945196;28;49957;-76
2022/12/30 15:23:20;;;;;;;;;0.00;0.00;;;;;14.54;100.00;100207.66;4935182;28;49810;-76
2022/12/30 15:25:59;;;;;;;;;0.00;0.00;;;;;14.52;100.00;100217.38;4945236;28;49430;-79
2022/12/30 15:28:25;;;;;;;;;0.00;0.00;;;;;14.46;100.00;100211.22;4947937;28;49433;-78
2022/12/30 15:30:50;;;;;;;;;0.00;0.00;;;;;13.48;100.00;100061.06;4963388;28;49862;-72
2022/12/30 15:33:16;;;;;;;;;0.00;0.00;;;;;13.54;100.00;100083.94;4947165;28;51480;-77
2022/12/30 15:35:41;;;;;;;;;0.00;0.00;;;;;14.11;100.00;100185.78;4943858;28;49312;-77
2022/12/30 15:38:17;;;;;;;;;0.00;0.00;;;;;13.72;100.00;100132.25;4944675;28;49839;-74
2022/12/30 15:40:46;;;;;;;;;0.00;0.00;;;;;14.47;100.00;100232.34;4946514;28;49727;-73
2022/12/30 15:43:20;;;;;;;;;0.00;0.00;;;;;14.48;100.00;100243.81;4946011;28;50665;-79
2022/12/30 15:46:00;;;;;;;;;0.00;0.00;;;;;14.23;100.00;100213.91;4932131;28;49934;-85
2022/12/30 15:48:40;;;;;;;;;0.00;0.00;;;;;14.30;100.00;100200.69;4947502;28;49636;-78
2022/12/30 15:51:18;;;;;;;;;0.50;0.00;;;;;14.46;100.00;100246.44;4946471;28;49780;-83
2022/12/30 15:54:05;;;;;;;;;0.00;0.00;;;;;13.25;100.00;100061.13;4944101;28;51612;-80
2022/12/30 15:56:32;;;;;;;;;0.00;0.00;;;;;13.49;100.00;100085.69;4937623;28;49680;-80
2022/12/30 15:59:01;;;;;;;;;0.00;0.00;;;;;14.47;100.00;100269.31;4936047;28;49775;-72
2022/12/30 16:01:30;;;;;;;;;0.00;0.00;;;;;14.46;100.00;100259.63;4933714;28;50037;-71
2022/12/30 16:03:58;;;;;;;;;0.00;0.00;;;;;14.48;100.00;100272.88;4932467;28;50577;-69
2022/12/30 16:06:24;;;;;;;;;1.00;0.50;;;;;14.44;100.00;100305.41;4934396;28;49817;-81
2022/12/30 16:08:57;;;;;;;;;0.00;0.00;;;;;13.83;100.00;100202.56;4934918;28;49955;-85
2022/12/30 16:11:32;;;;;;;;;0.00;0.00;;;;;14.13;100.00;100236.81;4935406;28;49854;-78
2022/12/30 16:14:27;;;;;;;;;0.00;0.00;;;;;14.47;100.00;100294.84;4933407;28;50221;-77
2022/12/30 16:16:53;;;;;;;;;0.00;0.00;;;;;13.50;100.00;100142.81;4933002;28;49771;-77
2022/12/30 16:19:22;;;;;;;;;1.50;1.50;;;;;14.47;100.00;100302.78;4931615;28;49987;-78
2022/12/30 16:21:53;;;;;;;;;1.00;1.00;;;;;13.50;100.00;100137.53;4932633;28;49947;-77
2022/12/30 16:24:28;;;;;;;;;0.00;0.00;;;;;13.96;100.00;100228.03;4928448;28;50159;-76
2022/12/30 16:26:54;;;;;;;;;2.00;0.00;;;;;14.46;100.00;100309.81;4931249;28;51912;-77
2022/12/30 16:29:26;;;;;;;;;4.00;0.00;;;;;13.35;100.00;100143.72;4932414;28;49894;-74
2022/12/30 16:31:51;;;;;;;;;0.00;0.00;;;;;14.50;100.00;100330.06;4930708;28;51130;-73
2022/12/30 16:34:17;;;;;;;;;0.00;0.00;;;;;14.49;100.00;100324.81;4932178;28;49762;-77
2022/12/30 16:36:44;;;;;;;;;1.00;1.00;;;;;14.40;100.00;100303.66;4932960;28;49797;-78
2022/12/30 16:39:10;;;;;;;;;2.00;0.25;;;;;14.54;100.00;100363.50;4932771;28;50312;-78
2022/12/30 16:41:35;;;;;;;;;0.00;0.00;;;;;13.24;100.00;100129.66;4933488;28;49753;-75
2022/12/30 16:44:01;;;;;;;;;1.00;1.00;;;;;14.56;100.00;100337.97;4931629;28;52198;-76
2022/12/30 16:46:28;;;;;;;;;0.00;0.00;;;;;13.61;100.00;100170.94;4932953;28;50028;-77
2022/12/30 16:48:55;;;;;;;;;0.00;0.00;;;;;14.60;100.00;100344.13;4948860;28;50053;-76
2022/12/30 16:51:29;;;;;;;;;1.00;1.00;;;;;14.34;100.00;100299.25;4933042;28;49706;-76
2022/12/30 16:53:55;;;;;;;;;1.75;1.50;;;;;14.29;100.00;100295.75;4927522;28;49842;-76
2022/12/30 16:56:20;;;;;;;;;1.50;0.00;;;;;13.50;100.00;100170.03;4933476;28;49985;-73
2022/12/30 16:58:46;;;;;;;;;0.00;0.00;;;;;13.68;100.00;100227.19;4932133;28;49662;-76
2022/12/30 17:01:13;;;;;;;;;0.75;0.75;;;;;14.67;100.00;100372.31;4934016;28;49859;-73
2022/12/30 17:03:43;;;;;;;;;1.75;1.00;;;;;14.62;100.00;100355.56;4933542;28;52521;-81
2022/12/30 17:06:10;;;;;;;;;0.00;0.00;;;;;14.61;100.00;100367.03;4932497;28;49759;-78
2022/12/30 17:08:36;;;;;;;;;0.00;0.00;;;;;13.91;100.00;100251.81;4934143;28;49564;-70
2022/12/30 17:11:07;;;;;;;;;0.00;0.00;;;;;14.71;100.00;100367.88;4935463;28;50062;-71
2022/12/30 17:13:39;;;;;;;;;0.00;0.00;;;;;13.83;100.00;100242.13;4933063;28;49873;-78
2022/12/30 17:16:17;;;;;;;;;1.00;0.00;;;;;14.08;100.00;100275.53;4928404;28;49950;-72
2022/12/30 17:18:42;;;;;;;;;0.50;0.50;;;;;13.32;100.00;100162.16;4927765;28;49991;-72
2022/12/30 17:21:08;;;;;;;;;0.00;0.00;;;;;14.57;100.00;100362.63;4932585;28;49956;-71
2022/12/30 17:23:41;;;;;;;;;0.00;0.00;;;;;14.53;100.00;100361.75;4936418;28;49698;-73
2022/12/30 17:26:07;;;;;;;;;0.00;0.00;;;;;13.40;100.00;100169.16;4938727;28;50151;-73
2022/12/30 17:28:33;;;;;;;;;0.00;0.00;;;;;14.05;100.00;100312.47;4939474;28;50001;-73
2022/12/30 17:30:59;;;;;;;;;0.00;0.00;;;;;14.06;100.00;100274.66;4934293;28;50000;-73
2022/12/30 17:33:26;;;;;;;;;0.00;0.00;;;;;13.57;100.00;100206.09;4937083;28;50275;-73
2022/12/30 17:35:51;;;;;;;;;0.00;0.00;;;;;14.78;100.00;100396.94;4927532;28;50742;-76
2022/12/30 17:38:19;;;;;;;;;0.50;0.50;;;;;14.76;100.00;100409.25;4933474;28;49978;-71
2022/12/30 17:40:45;;;;;;;;;0.00;0.00;;;;;13.89;100.00;100274.66;4927964;28;49895;-72
2022/12/30 17:43:11;;;;;;;;;0.75;0.75;;;;;14.46;100.00;100367.91;4929639;28;51017;-73
2022/12/30 17:45:38;;;;;;;;;0.00;0.00;;;;;14.74;100.00;100429.53;4935688;28;50214;-73
2022/12/30 17:48:03;;;;;;;;;0.00;0.00;;;;;14.67;100.00;100413.66;4934360;28;50191;-74
2022/12/30 17:50:29;;;;;;;;;0.00;0.00;;;;;14.43;100.00;100401.34;4936525;28;49770;-72
2022/12/30 17:52:54;;;;;;;;;1.25;1.25;;;;;14.04;100.00;100303.69;4947470;28;51643;-73
2022/12/30 17:55:20;;;;;;;;;0.00;0.00;;;;;14.11;100.00;100324.81;4934030;28;49687;-72
2022/12/30 17:57:45;;;;;;;;;0.00;0.00;;;;;14.73;100.00;100440.09;4931988;28;49711;-73
2022/12/30 18:00:12;;;;;;;;;0.00;0.00;;;;;14.17;100.00;100359.97;4931944;28;50125;-73
2022/12/30 18:02:39;;;;;;;;;0.00;0.00;;;;;14.02;100.00;100349.44;4932449;28;50984;-72
2022/12/30 18:05:09;;;;;;;;;0.00;0.00;;;;;14.37;100.00;100372.28;4932261;28;49781;-74
2022/12/30 18:07:34;;;;;;;;;0.00;0.00;;;;;14.40;100.00;100377.59;4935839;28;49821;-78
2022/12/30 18:10:00;;;;;;;;;0.00;0.00;;;;;14.71;100.00;100431.28;4950774;28;49739;-75
2022/12/30 18:12:27;;;;;;;;;2.00;1.00;;;;;14.46;100.00;100391.69;4931580;28;49606;-80
2022/12/30 18:14:53;;;;;;;;;0.25;0.25;;;;;14.72;100.00;100456.84;4932268;28;49919;-78
2022/12/30 18:17:18;;;;;;;;;1.00;1.00;;;;;14.75;100.00;100455.06;4932870;28;49945;-78
2022/12/30 18:19:44;;;;;;;;;1.75;0.75;;;;;14.41;100.00;100406.63;4933504;28;49890;-79
2022/12/30 18:22:09;;;;;;;;;0.00;0.00;;;;;14.76;100.00;100471.78;4934055;28;50727;-79
2022/12/30 18:24:42;;;;;;;;;0.00;0.00;;;;;14.46;100.00;100438.34;4931048;28;49832;-77
2022/12/30 18:27:07;;;;;;;;;0.00;0.00;;;;;14.80;100.00;100474.44;4931454;28;50155;-84
2022/12/30 18:29:33;;;;;;;;;0.00;0.00;;;;;14.78;100.00;100484.16;4931752;28;49960;-72
2022/12/30 18:31:59;;;;;;;;;0.50;0.50;;;;;13.43;100.00;100252.69;4935491;28;49822;-73
2022/12/30 18:34:24;;;;;;;;;0.50;0.50;;;;;13.57;100.00;100272.03;4932542;28;49958;-75
2022/12/30 18:36:49;;;;;;;;;0.25;0.25;;;;;13.56;100.00;100272.91;4932868;28;49735;-73
2022/12/30 18:39:15;;;;;;;;;0.00;0.00;;;;;14.21;100.00;100376.72;4932599;28;49825;-73
2022/12/30 18:41:40;;;;;;;;;2.25;1.25;;;;;14.81;100.00;100473.56;4932492;28;49832;-73
2022/12/30 18:44:10;;;;;;;;;1.25;1.25;;;;;14.79;100.00;100471.81;4932871;28;49872;-80
2022/12/30 18:46:35;;;;;;;;;1.00;1.00;;;;;14.28;100.00;100411.06;4932406;28;49814;-81
2022/12/30 18:49:04;;;;;;;;;1.00;1.00;;;;;14.14;100.00;100375.84;4931579;28;50077;-75
2022/12/30 18:51:34;;;;;;;;;3.50;1.75;;;;;14.88;100.00;100491.19;4936442;28;49746;-78
2022/12/30 18:54:02;;;;;;;;;3.00;2.50;;;;;14.91;100.00;100492.94;4937136;28;49853;-77
2022/12/30 18:56:29;;;;;;;;;3.50;3.50;;;;;14.91;100.00;100479.72;4949464;28;49291;-76
2022/12/30 18:58:55;;;;;;;;;2.00;2.00;;;;;14.86;100.00;100466.53;4949411;28;49616;-75
2022/12/30 19:01:23;;;;;;;;;17.00;16.00;;;;;13.86;100.00;100321.28;4943892;28;49721;-76
2022/12/30 19:03:51;;;;;;;;;11.50;10.75;;;;;14.63;100.00;100451.56;4938665;28;50059;-73
2022/12/30 19:06:17;;;;;;;;;4.50;3.75;;;;;14.24;100.00;100363.50;4927532;28;50034;-75
2022/12/30 19:08:43;;;;;;;;;3.50;2.50;;;;;14.21;100.00;100356.47;4931922;28;49960;-73
2022/12/30 19:11:13;;;;;;;;;1.00;1.00;;;;;14.17;100.00;100348.53;4935277;28;49855;-72
2022/12/30 19:13:39;;;;;;;;;3.00;3.00;;;;;14.13;100.00;100347.69;4932313;28;49729;-76
2022/12/30 19:16:11;;;;;;;;;1.00;1.00;;;;;14.32;100.00;100377.59;4931982;28;49602;-73
2022/12/30 19:18:37;;;;;;;;;0.75;0.75;;;;;14.98;100.00;100481.47;4927973;28;49997;-75
2022/12/30 19:21:17;;;;;;;;;0.25;0.25;;;;;14.76;100.00;100459.47;4931827;28;49607;-76
2022/12/30 19:23:43;;;;;;;;;0.75;0.75;;;;;14.25;100.00;100384.63;4927555;28;49983;-88
2022/12/30 19:26:09;;;;;;;;;3.25;1.50;;;;;14.78;100.00;100483.25;4936509;28;49850;-75
2022/12/30 19:28:36;;;;;;;;;1.00;1.00;;;;;14.42;100.00;100450.66;4935860;28;50094;-76
2022/12/30 19:31:10;;;;;;;;;0.00;0.00;;;;;14.15;100.00;100385.50;4934451;28;49837;-84
2022/12/30 19:33:36;;;;;;;;;1.75;1.75;;;;;14.76;100.00;100474.44;4931946;28;49875;-76
2022/12/30 19:36:04;;;;;;;;;0.75;0.75;;;;;14.82;100.00;100506.16;4931610;28;49916;-77
2022/12/30 19:38:29;;;;;;;;;1.00;1.00;;;;;15.06;100.00;100564.31;4931779;28;49702;-72
2022/12/30 19:40:55;;;;;;;;;1.00;1.00;;;;;14.66;100.00;100478.84;4931940;28;49728;-71
2022/12/30 19:43:20;;;;;;;;;1.75;0.00;;;;;15.12;100.00;100560.75;4941106;28;58431;-73
2022/12/30 19:45:46;;;;;;;;;0.25;0.25;;;;;14.09;100.00;100397.81;4931540;28;49874;-76
2022/12/30 19:48:12;;;;;;;;;0.25;0.25;;;;;15.13;100.00;100559.88;4943795;28;49881;-73
2022/12/30 19:50:37;;;;;;;;;1.25;1.25;;;;;14.92;100.00;100557.25;4949029;28;50098;-72
2022/12/30 19:53:04;;;;;;;;;0.00;0.00;;;;;14.76;100.00;100508.78;4947608;28;49454;-72
2022/12/30 19:55:30;;;;;;;;;1.00;1.00;;;;;14.91;100.00;100547.56;4948237;28;49409;-75
2022/12/30 19:57:56;;;;;;;;;1.25;1.00;;;;;14.82;100.00;100522.00;4946512;28;49307;-72
2022/12/30 20:00:22;;;;;;;;;2.00;1.00;;;;;15.04;100.00;100571.31;4944943;28;49888;-73
2022/12/30 20:02:47;;;;;;;;;1.00;1.00;;;;;15.05;100.00;100580.13;4936505;28;49671;-73
2022/12/30 20:05:13;;;;;;;;;0.50;0.50;;;;;15.06;100.00;100560.78;4930390;28;49935;-75
2022/12/30 20:07:39;;;;;;;;;1.00;1.00;;;;;15.03;100.00;100556.34;4931932;28;49834;-73
2022/12/30 20:10:06;;;;;;;;;1.00;1.00;;;;;14.21;100.00;100411.03;4933330;28;50099;-74